createdAt,value
2023-04-22T00:00:52.704Z,94754.00
2023-04-22T00:01:52.722Z,94750.00
2023-04-22T00:02:52.891Z,94750.00
2023-04-22T00:03:52.930Z,94748.00
2023-04-22T00:04:52.933Z,94750.00
2023-04-22T00:05:52.919Z,94750.00
2023-04-22T00:06:52.754Z,94746.00
2023-04-22T00:07:52.763Z,94746.00
2023-04-22T00:08:52.773Z,94750.00
2023-04-22T00:09:52.786Z,94750.00
2023-04-22T00:10:52.777Z,94750.00
2023-04-22T00:11:52.764Z,94750.00
2023-04-22T00:12:52.774Z,94750.00
2023-04-22T00:13:52.800Z,94748.00
2023-04-22T00:14:52.769Z,94750.00
2023-04-22T00:15:52.783Z,94752.00
2023-04-22T00:16:52.753Z,94750.00
2023-04-22T00:17:53.024Z,94752.00
2023-04-22T00:18:52.760Z,94750.00
2023-04-22T00:19:52.752Z,94752.00
2023-04-22T00:20:52.759Z,94750.00
2023-04-22T00:21:52.769Z,94750.00
2023-04-22T00:22:52.767Z,94752.00
2023-04-22T00:23:52.778Z,94754.00
2023-04-22T00:24:52.786Z,94754.00
2023-04-22T00:25:52.788Z,94754.00
2023-04-22T00:26:52.790Z,94758.00
2023-04-22T00:27:52.802Z,94756.00
2023-04-22T00:28:52.812Z,94754.00
2023-04-22T00:29:52.889Z,94754.00
2023-04-22T00:30:52.969Z,94756.00
2023-04-22T00:31:53.046Z,94758.00
2023-04-22T00:32:53.044Z,94756.00
2023-04-22T00:33:53.061Z,94756.00
2023-04-22T00:34:53.120Z,94758.00
2023-04-22T00:35:53.172Z,94758.00
2023-04-22T00:36:53.231Z,94760.00
2023-04-22T00:37:53.290Z,94758.00
2023-04-22T00:38:53.329Z,94762.00
2023-04-22T00:39:53.696Z,94760.00
2023-04-22T00:40:53.428Z,94764.00
2023-04-22T00:41:53.466Z,94758.00
2023-04-22T00:42:53.518Z,94758.00
2023-04-22T00:43:53.563Z,94754.00
2023-04-22T00:44:53.605Z,94758.00
2023-04-22T00:45:53.662Z,94752.00
2023-04-22T00:46:53.742Z,94750.00
2023-04-22T00:47:53.740Z,94750.00
2023-04-22T00:48:53.748Z,94752.00
2023-04-22T00:49:53.793Z,94752.00
2023-04-22T00:50:53.815Z,94748.00
2023-04-22T00:51:53.848Z,94752.00
2023-04-22T00:52:53.874Z,94748.00
2023-04-22T00:53:53.911Z,94746.00
2023-04-22T00:54:53.941Z,94748.00
2023-04-22T00:55:53.969Z,94748.00
2023-04-22T00:56:53.996Z,94750.00
2023-04-22T00:57:54.023Z,94752.00
2023-04-22T00:58:54.063Z,94750.00
2023-04-22T00:59:54.119Z,94750.00
2023-04-22T01:00:54.210Z,94750.00
2023-04-22T01:01:54.274Z,94750.00
2023-04-22T01:02:54.371Z,94752.00
2023-04-22T01:03:54.755Z,94754.00
2023-04-22T01:04:54.408Z,94756.00
2023-04-22T01:05:54.478Z,94756.00
2023-04-22T01:06:54.536Z,94756.00
2023-04-22T01:07:54.593Z,94756.00
2023-04-22T01:08:54.637Z,94756.00
2023-04-22T01:09:54.698Z,94762.00
2023-04-22T01:10:54.784Z,94758.00
2023-04-22T01:11:54.847Z,94758.00
2023-04-22T01:12:54.874Z,94756.00
2023-04-22T01:13:54.918Z,94758.00
2023-04-22T01:14:54.932Z,94754.00
2023-04-22T01:15:54.969Z,94758.00
2023-04-22T01:16:55.140Z,94756.00
2023-04-22T01:17:55.136Z,94756.00
2023-04-22T01:18:55.044Z,94754.00
2023-04-22T01:19:55.071Z,94752.00
2023-04-22T01:20:55.101Z,94752.00
2023-04-22T01:21:55.126Z,94754.00
2023-04-22T01:22:55.165Z,94754.00
2023-04-22T01:23:55.191Z,94756.00
2023-04-22T01:24:55.234Z,94758.00
2023-04-22T01:25:55.288Z,94758.00
2023-04-22T01:26:55.356Z,94756.00
2023-04-22T01:27:55.365Z,94758.00
2023-04-22T01:28:55.407Z,94756.00
2023-04-22T01:29:55.455Z,94758.00
2023-04-22T01:30:55.508Z,94758.00
2023-04-22T01:31:55.541Z,94762.00
2023-04-22T01:32:55.656Z,94762.00
2023-04-22T01:33:55.605Z,94764.00
2023-04-22T01:34:55.605Z,94764.00
2023-04-22T01:35:55.642Z,94760.00
2023-04-22T01:36:55.657Z,94762.00
2023-04-22T01:37:55.683Z,94764.00
2023-04-22T01:38:55.731Z,94762.00
2023-04-22T01:39:55.788Z,94764.00
2023-04-22T01:40:55.878Z,94762.00
2023-04-22T01:41:55.946Z,94764.00
2023-04-22T01:42:56.014Z,94766.00
2023-04-22T01:43:56.092Z,94768.00
2023-04-22T01:46:22.585Z,94774.00
2023-04-22T01:47:15.852Z,94772.00
2023-04-22T01:48:15.922Z,94770.00
2023-04-22T01:49:15.906Z,94772.00
2023-04-22T01:50:15.894Z,94772.00
2023-04-22T01:51:15.899Z,94774.00
2023-04-22T01:52:15.904Z,94768.00
2023-04-22T01:53:15.917Z,94772.00
2023-04-22T01:54:15.918Z,94772.00
2023-04-22T01:55:15.916Z,94770.00
2023-04-22T01:56:15.925Z,94766.00
2023-04-22T01:57:15.923Z,94768.00
2023-04-22T01:58:15.946Z,94766.00
2023-04-22T01:59:15.942Z,94768.00
2023-04-22T02:00:15.932Z,94764.00
2023-04-22T02:01:15.960Z,94766.00
2023-04-22T02:02:16.152Z,94768.00
2023-04-22T02:03:16.109Z,94772.00
2023-04-22T02:04:15.965Z,94766.00
2023-04-22T02:05:15.972Z,94766.00
2023-04-22T02:06:15.948Z,94762.00
2023-04-22T02:07:15.945Z,94762.00
2023-04-22T02:08:15.942Z,94762.00
2023-04-22T02:09:15.953Z,94766.00
2023-04-22T02:10:15.950Z,94768.00
2023-04-22T02:11:15.973Z,94762.00
2023-04-22T02:12:16.011Z,94766.00
2023-04-22T02:13:16.041Z,94768.00
2023-04-22T02:14:16.089Z,94770.00
2023-04-22T02:15:16.147Z,94772.00
2023-04-22T02:16:16.265Z,94772.00
2023-04-22T02:17:16.212Z,94768.00
2023-04-22T02:18:16.263Z,94774.00
2023-04-22T02:19:16.362Z,94774.00
2023-04-22T02:20:16.403Z,94770.00
2023-04-22T02:21:16.442Z,94772.00
2023-04-22T02:22:16.456Z,94768.00
2023-04-22T02:23:16.502Z,94772.00
2023-04-22T02:24:16.602Z,94768.00
2023-04-22T02:25:16.581Z,94768.00
2023-04-22T02:26:16.609Z,94768.00
2023-04-22T02:27:16.646Z,94766.00
2023-04-22T02:28:16.657Z,94768.00
2023-04-22T02:29:16.716Z,94768.00
2023-04-22T02:30:16.710Z,94766.00
2023-04-22T02:31:16.795Z,94772.00
2023-04-22T02:32:16.768Z,94770.00
2023-04-22T02:33:16.803Z,94770.00
2023-04-22T02:34:16.835Z,94770.00
2023-04-22T02:35:16.867Z,94770.00
2023-04-22T02:36:16.891Z,94770.00
2023-04-22T02:37:16.957Z,94772.00
2023-04-22T02:38:16.959Z,94774.00
2023-04-22T02:39:16.989Z,94772.00
2023-04-22T02:40:17.031Z,94776.00
2023-04-22T02:41:17.067Z,94776.00
2023-04-22T02:42:17.105Z,94782.00
2023-04-22T02:43:17.169Z,94782.00
2023-04-22T02:44:17.233Z,94784.00
2023-04-22T02:45:17.285Z,94784.00
2023-04-22T02:46:17.403Z,94784.00
2023-04-22T02:47:17.388Z,94787.00
2023-04-22T02:48:17.462Z,94785.00
2023-04-22T02:49:17.510Z,94780.00
2023-04-22T02:50:17.592Z,94782.00
2023-04-22T02:51:17.688Z,94785.00
2023-04-22T02:52:17.702Z,94784.00
2023-04-22T02:53:17.771Z,94782.00
2023-04-22T02:54:17.813Z,94780.00
2023-04-22T02:55:17.902Z,94778.00
2023-04-22T02:56:17.907Z,94780.00
2023-04-22T02:57:17.945Z,94780.00
2023-04-22T02:58:17.994Z,94778.00
2023-04-22T02:59:18.073Z,94778.00
2023-04-22T03:00:18.077Z,94782.00
2023-04-22T03:01:18.217Z,94776.00
2023-04-22T03:02:18.359Z,94774.00
2023-04-22T03:03:18.333Z,94774.00
2023-04-22T03:04:18.523Z,94774.00
2023-04-22T03:05:18.346Z,94772.00
2023-04-22T03:06:18.419Z,94770.00
2023-04-22T03:07:18.474Z,94770.00
2023-04-22T03:08:18.528Z,94772.00
2023-04-22T03:09:18.629Z,94772.00
2023-04-22T03:10:18.668Z,94774.00
2023-04-22T03:11:18.754Z,94770.00
2023-04-22T03:12:18.812Z,94768.00
2023-04-22T03:13:18.870Z,94770.00
2023-04-22T03:14:18.956Z,94770.00
2023-04-22T03:15:21.281Z,94770.00
2023-04-22T03:16:19.153Z,94774.00
2023-04-22T03:17:19.107Z,94774.00
2023-04-22T03:18:19.090Z,94776.00
2023-04-22T03:19:19.105Z,94776.00
2023-04-22T03:20:19.123Z,94778.00
2023-04-22T03:21:19.120Z,94778.00
2023-04-22T03:22:19.126Z,94780.00
2023-04-22T03:23:19.140Z,94778.00
2023-04-22T03:24:19.144Z,94782.00
2023-04-22T03:25:19.179Z,94780.00
2023-04-22T03:26:19.179Z,94780.00
2023-04-22T03:27:19.178Z,94778.00
2023-04-22T03:28:19.197Z,94780.00
2023-04-22T03:29:19.201Z,94776.00
2023-04-22T03:30:19.216Z,94780.00
2023-04-22T03:31:19.246Z,94778.00
2023-04-22T03:32:19.258Z,94778.00
2023-04-22T03:33:19.336Z,94778.00
2023-04-22T03:34:19.247Z,94780.00
2023-04-22T03:35:19.247Z,94780.00
2023-04-22T03:36:19.289Z,94778.00
2023-04-22T03:37:19.251Z,94778.00
2023-04-22T03:38:19.251Z,94778.00
2023-04-22T03:39:19.257Z,94774.00
2023-04-22T03:40:19.254Z,94776.00
2023-04-22T03:41:19.306Z,94774.00
2023-04-22T03:42:19.272Z,94776.00
2023-04-22T03:43:19.315Z,94776.00
2023-04-22T03:44:19.398Z,94776.00
2023-04-22T03:45:19.451Z,94780.00
2023-04-22T03:46:19.670Z,94780.00
2023-04-22T03:47:19.621Z,94780.00
2023-04-22T03:48:19.656Z,94778.00
2023-04-22T03:49:19.737Z,94782.00
2023-04-22T03:50:19.789Z,94780.00
2023-04-22T03:51:19.852Z,94782.00
2023-04-22T03:52:19.892Z,94782.00
2023-04-22T03:53:19.923Z,94782.00
2023-04-22T03:54:19.970Z,94780.00
2023-04-22T03:55:20.031Z,94778.00
2023-04-22T03:56:20.081Z,94782.00
2023-04-22T03:57:20.151Z,94782.00
2023-04-22T03:58:20.251Z,94782.00
2023-04-22T03:59:20.249Z,94780.00
2023-04-22T04:00:20.297Z,94782.00
2023-04-22T04:01:20.352Z,94782.00
2023-04-22T04:02:20.476Z,94782.00
2023-04-22T04:03:20.865Z,94782.00
2023-04-22T04:04:20.940Z,94784.00
2023-04-22T04:05:20.734Z,94784.00
2023-04-22T04:06:20.704Z,94785.00
2023-04-22T04:07:20.786Z,94787.00
2023-04-22T04:08:20.855Z,94785.00
2023-04-22T04:09:20.916Z,94785.00
2023-04-22T04:10:21.054Z,94787.00
2023-04-22T04:11:21.065Z,94785.00
2023-04-22T04:12:21.162Z,94789.00
2023-04-22T04:13:21.231Z,94789.00
2023-04-22T04:14:21.269Z,94789.00
2023-04-22T04:15:21.347Z,94791.00
2023-04-22T04:16:21.435Z,94789.00
2023-04-22T04:17:21.494Z,94789.00
2023-04-22T04:18:21.501Z,94791.00
2023-04-22T04:19:21.573Z,94791.00
2023-04-22T04:20:21.615Z,94789.00
2023-04-22T04:21:21.676Z,94789.00
2023-04-22T04:22:21.732Z,94795.00
2023-04-22T04:23:21.789Z,94793.00
2023-04-22T04:24:21.841Z,94799.00
2023-04-22T04:25:21.871Z,94797.00
2023-04-22T04:26:21.931Z,94797.00
2023-04-22T04:27:22.050Z,94801.00
2023-04-22T04:28:22.038Z,94801.00
2023-04-22T04:29:22.092Z,94799.00
2023-04-22T04:30:22.109Z,94801.00
2023-04-22T04:31:22.192Z,94803.00
2023-04-22T04:32:22.240Z,94801.00
2023-04-22T04:33:22.229Z,94801.00
2023-04-22T04:34:22.277Z,94803.00
2023-04-22T04:35:22.358Z,94803.00
2023-04-22T04:36:22.450Z,94803.00
2023-04-22T04:37:22.520Z,94799.00
2023-04-22T04:38:22.589Z,94799.00
2023-04-22T04:39:22.674Z,94801.00
2023-04-22T04:40:22.734Z,94801.00
2023-04-22T04:41:22.821Z,94801.00
2023-04-22T04:42:22.894Z,94801.00
2023-04-22T04:43:22.980Z,94801.00
2023-04-22T04:44:23.061Z,94801.00
2023-04-22T04:45:23.136Z,94799.00
2023-04-22T04:46:23.194Z,94797.00
2023-04-22T04:47:23.215Z,94797.00
2023-04-22T04:48:23.303Z,94797.00
2023-04-22T04:49:23.379Z,94797.00
2023-04-22T04:50:23.478Z,94799.00
2023-04-22T04:51:23.599Z,94799.00
2023-04-22T04:52:23.630Z,94803.00
2023-04-22T04:53:23.713Z,94801.00
2023-04-22T04:54:23.743Z,94799.00
2023-04-22T04:55:23.762Z,94799.00
2023-04-22T04:56:23.821Z,94797.00
2023-04-22T04:57:23.879Z,94797.00
2023-04-22T04:58:23.942Z,94801.00
2023-04-22T04:59:23.990Z,94799.00
2023-04-22T05:00:24.031Z,94799.00
2023-04-22T05:01:24.181Z,94801.00
2023-04-22T05:02:24.443Z,94797.00
2023-04-22T05:03:24.365Z,94801.00
2023-04-22T05:04:24.509Z,94795.00
2023-04-22T05:05:24.395Z,94793.00
2023-04-22T05:06:24.422Z,94795.00
2023-04-22T05:07:24.429Z,94797.00
2023-04-22T05:08:24.426Z,94797.00
2023-04-22T05:09:24.446Z,94795.00
2023-04-22T05:10:24.439Z,94799.00
2023-04-22T05:11:24.467Z,94799.00
2023-04-22T05:12:24.504Z,94799.00
2023-04-22T05:13:24.556Z,94795.00
2023-04-22T05:14:24.569Z,94795.00
2023-04-22T05:15:24.633Z,94799.00
2023-04-22T05:16:24.760Z,94801.00
2023-04-22T05:17:24.815Z,94801.00
2023-04-22T05:18:24.836Z,94801.00
2023-04-22T05:19:24.906Z,94799.00
2023-04-22T05:20:24.943Z,94801.00
2023-04-22T05:21:24.987Z,94807.00
2023-04-22T05:22:25.036Z,94807.00
2023-04-22T05:23:25.110Z,94807.00
2023-04-22T05:24:25.185Z,94811.00
2023-04-22T05:25:25.185Z,94813.00
2023-04-22T05:26:25.205Z,94813.00
2023-04-22T05:27:25.209Z,94815.00
2023-04-22T05:28:25.267Z,94815.00
2023-04-22T05:29:25.294Z,94817.00
2023-04-22T05:30:25.306Z,94815.00
2023-04-22T05:31:25.363Z,94819.00
2023-04-22T05:32:25.473Z,94819.00
2023-04-22T05:33:25.403Z,94821.00
2023-04-22T05:34:25.393Z,94823.00
2023-04-22T05:35:25.441Z,94823.00
2023-04-22T05:36:25.513Z,94825.00
2023-04-22T05:37:25.583Z,94821.00
2023-04-22T05:38:25.640Z,94825.00
2023-04-22T05:39:25.695Z,94825.00
2023-04-22T05:40:25.773Z,94825.00
2023-04-22T05:41:25.788Z,94829.00
2023-04-22T05:42:25.816Z,94829.00
2023-04-22T05:43:25.842Z,94825.00
2023-04-22T05:44:25.866Z,94827.00
2023-04-22T05:45:25.916Z,94825.00
2023-04-22T05:46:25.977Z,94823.00
2023-04-22T05:47:26.053Z,94821.00
2023-04-22T05:48:26.042Z,94817.00
2023-04-22T05:49:26.042Z,94821.00
2023-04-22T05:50:26.027Z,94819.00
2023-04-22T05:51:26.049Z,94819.00
2023-04-22T05:52:26.072Z,94823.00
2023-04-22T05:53:26.089Z,94821.00
2023-04-22T05:54:26.116Z,94819.00
2023-04-22T05:55:26.106Z,94819.00
2023-04-22T05:56:26.091Z,94815.00
2023-04-22T05:57:26.114Z,94813.00
2023-04-22T05:58:26.168Z,94817.00
2023-04-22T05:59:26.190Z,94817.00
2023-04-22T06:00:26.194Z,94819.00
2023-04-22T06:01:26.239Z,94817.00
2023-04-22T06:02:26.384Z,94817.00
2023-04-22T06:03:26.484Z,94815.00
2023-04-22T06:04:26.653Z,94815.00
2023-04-22T06:05:26.494Z,94815.00
2023-04-22T06:06:26.421Z,94817.00
2023-04-22T06:07:26.385Z,94813.00
2023-04-22T06:08:26.397Z,94813.00
2023-04-22T06:09:26.394Z,94817.00
2023-04-22T06:10:26.396Z,94815.00
2023-04-22T06:11:26.417Z,94813.00
2023-04-22T06:12:26.404Z,94815.00
2023-04-22T06:13:26.441Z,94815.00
2023-04-22T06:14:26.492Z,94817.00
2023-04-22T06:15:26.523Z,94815.00
2023-04-22T06:16:26.583Z,94815.00
2023-04-22T06:17:26.635Z,94817.00
2023-04-22T06:18:28.089Z,94817.00
2023-04-22T06:19:26.632Z,94817.00
2023-04-22T06:20:26.610Z,94817.00
2023-04-22T06:21:26.711Z,94815.00
2023-04-22T06:22:26.580Z,94811.00
2023-04-22T06:23:26.555Z,94811.00
2023-04-22T06:24:26.523Z,94809.00
2023-04-22T06:25:26.493Z,94807.00
2023-04-22T06:26:26.483Z,94805.00
2023-04-22T06:27:26.480Z,94801.00
2023-04-22T06:28:26.431Z,94803.00
2023-04-22T06:29:26.423Z,94805.00
2023-04-22T06:30:26.384Z,94801.00
2023-04-22T06:31:26.375Z,94803.00
2023-04-22T06:32:26.317Z,94799.00
2023-04-22T06:33:26.320Z,94797.00
2023-04-22T06:34:26.270Z,94799.00
2023-04-22T06:35:26.237Z,94799.00
2023-04-22T06:36:27.389Z,94797.00
2023-04-22T06:37:26.203Z,94797.00
2023-04-22T06:38:26.147Z,94797.00
2023-04-22T06:39:26.123Z,94795.00
2023-04-22T06:40:26.077Z,94799.00
2023-04-22T06:41:26.032Z,94797.00
2023-04-22T06:42:26.004Z,94795.00
2023-04-22T06:43:25.975Z,94793.00
2023-04-22T06:44:25.952Z,94793.00
2023-04-22T06:45:25.933Z,94793.00
2023-04-22T06:46:25.903Z,94793.00
2023-04-22T06:47:25.863Z,94799.00
2023-04-22T06:48:25.802Z,94795.00
2023-04-22T06:49:25.777Z,94797.00
2023-04-22T06:50:25.733Z,94791.00
2023-04-22T06:51:25.701Z,94793.00
2023-04-22T06:52:25.676Z,94791.00
2023-04-22T06:53:25.689Z,94789.00
2023-04-22T06:54:25.649Z,94789.00
2023-04-22T06:55:25.652Z,94789.00
2023-04-22T06:56:25.609Z,94787.00
2023-04-22T06:57:25.585Z,94787.00
2023-04-22T06:58:25.559Z,94785.00
2023-04-22T06:59:25.548Z,94791.00
2023-04-22T07:00:25.532Z,94787.00
2023-04-22T07:01:25.497Z,94789.00
2023-04-22T07:02:25.542Z,94785.00
2023-04-22T07:03:25.628Z,94787.00
2023-04-22T07:04:25.431Z,94789.00
2023-04-22T07:05:25.360Z,94784.00
2023-04-22T07:06:24.329Z,94782.00
2023-04-22T07:07:25.305Z,94778.00
2023-04-22T07:08:25.244Z,94778.00
2023-04-22T07:09:25.261Z,94778.00
2023-04-22T07:10:25.169Z,94778.00
2023-04-22T07:11:25.155Z,94780.00
2023-04-22T07:12:25.088Z,94778.00
2023-04-22T07:13:25.052Z,94778.00
2023-04-22T07:14:25.043Z,94778.00
2023-04-22T07:15:25.053Z,94774.00
2023-04-22T07:16:25.085Z,94774.00
2023-04-22T07:17:25.075Z,94772.00
2023-04-22T07:18:25.021Z,94772.00
2023-04-22T07:19:24.981Z,94768.00
2023-04-22T07:20:24.965Z,94768.00
2023-04-22T07:21:24.957Z,94766.00
2023-04-22T07:22:24.925Z,94768.00
2023-04-22T07:23:24.909Z,94764.00
2023-04-22T07:24:24.897Z,94764.00
2023-04-22T07:25:24.882Z,94764.00
2023-04-22T07:26:24.836Z,94760.00
2023-04-22T07:27:24.813Z,94760.00
2023-04-22T07:28:24.782Z,94760.00
2023-04-22T07:29:24.742Z,94758.00
2023-04-22T07:30:24.829Z,94758.00
2023-04-22T07:31:24.742Z,94752.00
2023-04-22T07:32:24.737Z,94754.00
2023-04-22T07:33:24.722Z,94754.00
2023-04-22T07:34:24.738Z,94748.00
2023-04-22T07:35:24.738Z,94750.00
2023-04-22T07:36:24.740Z,94748.00
2023-04-22T07:37:24.732Z,94746.00
2023-04-22T07:38:24.736Z,94744.00
2023-04-22T07:39:24.725Z,94746.00
2023-04-22T07:40:24.784Z,94748.00
2023-04-22T07:41:24.752Z,94742.00
2023-04-22T07:42:24.712Z,94742.00
2023-04-22T07:43:24.702Z,94740.00
2023-04-22T07:44:24.689Z,94736.00
2023-04-22T07:45:24.681Z,94736.00
2023-04-22T07:46:24.681Z,94734.00
2023-04-22T07:47:24.697Z,94740.00
2023-04-22T07:48:24.679Z,94734.00
2023-04-22T07:49:24.680Z,94732.00
2023-04-22T07:50:24.725Z,94732.00
2023-04-22T07:51:24.656Z,94732.00
2023-04-22T07:52:24.652Z,94732.00
2023-04-22T07:53:24.634Z,94730.00
2023-04-22T07:54:24.628Z,94732.00
2023-04-22T07:55:24.611Z,94730.00
2023-04-22T07:56:24.614Z,94729.00
2023-04-22T07:57:24.622Z,94727.00
2023-04-22T07:58:24.586Z,94727.00
2023-04-22T07:59:24.597Z,94725.00
2023-04-22T08:00:24.595Z,94721.00
2023-04-22T08:01:24.614Z,94725.00
2023-04-22T08:02:24.721Z,94723.00
2023-04-22T08:03:24.835Z,94719.00
2023-04-22T08:04:24.723Z,94721.00
2023-04-22T08:05:24.546Z,94721.00
2023-04-22T08:06:24.501Z,94723.00
2023-04-22T08:07:32.598Z,94719.00
2023-04-22T08:08:24.415Z,94719.00
2023-04-22T08:09:24.329Z,94719.00
2023-04-22T08:10:24.266Z,94717.00
2023-04-22T08:11:24.182Z,94715.00
2023-04-22T08:12:24.129Z,94715.00
2023-04-22T08:13:24.071Z,94715.00
2023-04-22T08:14:23.974Z,94713.00
2023-04-22T08:15:23.900Z,94709.00
2023-04-22T08:16:23.874Z,94705.00
2023-04-22T08:17:23.751Z,94711.00
2023-04-22T08:18:23.678Z,94703.00
2023-04-22T08:19:23.603Z,94705.00
2023-04-22T08:20:23.549Z,94701.00
2023-04-22T08:21:23.456Z,94701.00
2023-04-22T08:22:23.395Z,94699.00
2023-04-22T08:23:23.320Z,94699.00
2023-04-22T08:24:23.219Z,94703.00
2023-04-22T08:25:23.145Z,94701.00
2023-04-22T08:26:23.072Z,94697.00
2023-04-22T08:27:23.013Z,94701.00
2023-04-22T08:28:22.920Z,94699.00
2023-04-22T08:29:22.877Z,94699.00
2023-04-22T08:30:22.762Z,94695.00
2023-04-22T08:31:22.790Z,94695.00
2023-04-22T08:32:22.656Z,94693.00
2023-04-22T08:33:22.518Z,94693.00
2023-04-22T08:34:22.430Z,94695.00
2023-04-22T08:35:22.372Z,94699.00
2023-04-22T08:36:22.261Z,94693.00
2023-04-22T08:37:22.191Z,94691.00
2023-04-22T08:38:22.093Z,94689.00
2023-04-22T08:39:22.015Z,94689.00
2023-04-22T08:40:21.934Z,94687.00
2023-04-22T08:41:21.845Z,94689.00
2023-04-22T08:42:21.744Z,94693.00
2023-04-22T08:43:21.658Z,94689.00
2023-04-22T08:44:21.612Z,94691.00
2023-04-22T08:45:21.605Z,94689.00
2023-04-22T08:46:21.595Z,94687.00
2023-04-22T08:47:21.505Z,94685.00
2023-04-22T08:48:21.460Z,94683.00
2023-04-22T08:49:21.391Z,94689.00
2023-04-22T08:50:21.371Z,94685.00
2023-04-22T08:51:21.295Z,94685.00
2023-04-22T08:52:21.276Z,94685.00
2023-04-22T08:53:23.016Z,94685.00
2023-04-22T08:54:21.110Z,94685.00
2023-04-22T08:55:21.022Z,94683.00
2023-04-22T08:56:21.399Z,94682.00
2023-04-22T08:57:20.846Z,94680.00
2023-04-22T08:58:20.749Z,94678.00
2023-04-22T08:59:20.655Z,94676.00
2023-04-22T09:00:20.637Z,94674.00
2023-04-22T09:01:20.696Z,94678.00
2023-04-22T09:02:20.403Z,94678.00
2023-04-22T09:03:20.321Z,94676.00
2023-04-22T09:04:20.266Z,94674.00
2023-04-22T09:05:20.071Z,94676.00
2023-04-22T09:06:19.998Z,94678.00
2023-04-22T09:07:19.869Z,94678.00
2023-04-22T09:08:19.764Z,94670.00
2023-04-22T09:09:19.698Z,94670.00
2023-04-22T09:10:19.634Z,94672.00
2023-04-22T09:11:19.502Z,94670.00
2023-04-22T09:12:19.421Z,94672.00
2023-04-22T09:13:19.333Z,94672.00
2023-04-22T09:14:19.218Z,94672.00
2023-04-22T09:15:19.137Z,94670.00
2023-04-22T09:16:19.060Z,94670.00
2023-04-22T09:17:19.026Z,94672.00
2023-04-22T09:18:18.817Z,94668.00
2023-04-22T09:19:18.719Z,94672.00
2023-04-22T09:20:18.610Z,94666.00
2023-04-22T09:21:18.502Z,94664.00
2023-04-22T09:22:18.402Z,94664.00
2023-04-22T09:23:18.303Z,94660.00
2023-04-22T09:24:18.216Z,94656.00
2023-04-22T09:25:18.137Z,94658.00
2023-04-22T09:26:18.011Z,94658.00
2023-04-22T09:27:17.967Z,94654.00
2023-04-22T09:28:17.909Z,94656.00
2023-04-22T09:29:17.854Z,94650.00
2023-04-22T09:30:17.821Z,94648.00
2023-04-22T09:31:17.794Z,94648.00
2023-04-22T09:32:17.678Z,94648.00
2023-04-22T09:33:17.756Z,94644.00
2023-04-22T09:34:17.520Z,94644.00
2023-04-22T09:35:17.426Z,94644.00
2023-04-22T09:36:17.362Z,94637.00
2023-04-22T09:37:17.286Z,94631.00
2023-04-22T09:38:17.287Z,94633.00
2023-04-22T09:39:17.105Z,94629.00
2023-04-22T09:40:16.998Z,94629.00
2023-04-22T09:41:16.888Z,94627.00
2023-04-22T09:42:16.815Z,94625.00
2023-04-22T09:43:16.723Z,94625.00
2023-04-22T09:44:16.640Z,94625.00
2023-04-22T09:45:16.556Z,94625.00
2023-04-22T09:46:16.521Z,94623.00
2023-04-22T09:47:16.401Z,94625.00
2023-04-22T09:48:16.318Z,94623.00
2023-04-22T09:49:16.654Z,94617.00
2023-04-22T09:50:16.153Z,94619.00
2023-04-22T09:51:16.036Z,94615.00
2023-04-22T09:52:15.925Z,94615.00
2023-04-22T09:53:15.876Z,94611.00
2023-04-22T09:54:15.808Z,94611.00
2023-04-22T09:55:15.729Z,94607.00
2023-04-22T09:56:15.668Z,94609.00
2023-04-22T09:57:15.561Z,94607.00
2023-04-22T09:58:15.505Z,94599.00
2023-04-22T09:59:15.433Z,94599.00
2023-04-22T10:00:15.363Z,94597.00
2023-04-22T10:01:15.326Z,94593.00
2023-04-22T10:02:15.253Z,94593.00
2023-04-22T10:03:15.425Z,94591.00
2023-04-22T10:04:15.253Z,94590.00
2023-04-22T10:05:15.068Z,94586.00
2023-04-22T10:06:14.967Z,94586.00
2023-04-22T10:07:14.887Z,94582.00
2023-04-22T10:08:14.870Z,94580.00
2023-04-22T10:09:14.711Z,94578.00
2023-04-22T10:10:15.050Z,94576.00
2023-04-22T10:11:14.578Z,94578.00
2023-04-22T10:12:16.535Z,94580.00
2023-04-22T10:13:14.356Z,94578.00
2023-04-22T10:14:14.242Z,94578.00
2023-04-22T10:15:14.101Z,94576.00
2023-04-22T10:16:13.991Z,94576.00
2023-04-22T10:17:13.853Z,94570.00
2023-04-22T10:18:13.756Z,94574.00
2023-04-22T10:19:13.601Z,94570.00
2023-04-22T10:20:13.493Z,94570.00
2023-04-22T10:21:13.391Z,94570.00
2023-04-22T10:22:13.213Z,94572.00
2023-04-22T10:23:13.085Z,94568.00
2023-04-22T10:24:12.946Z,94566.00
2023-04-22T10:25:12.814Z,94564.00
2023-04-22T10:26:12.697Z,94562.00
2023-04-22T10:27:12.554Z,94564.00
2023-04-22T10:28:12.411Z,94564.00
2023-04-22T10:29:12.286Z,94562.00
2023-04-22T10:30:12.170Z,94560.00
2023-04-22T10:31:12.075Z,94560.00
2023-04-22T10:32:11.910Z,94560.00
2023-04-22T10:33:11.755Z,94560.00
2023-04-22T10:34:11.607Z,94562.00
2023-04-22T10:35:11.473Z,94556.00
2023-04-22T10:36:11.384Z,94552.00
2023-04-22T10:37:11.554Z,94550.00
2023-04-22T10:38:11.136Z,94556.00
2023-04-22T10:39:10.915Z,94548.00
2023-04-22T10:40:10.774Z,94546.00
2023-04-22T10:41:10.623Z,94544.00
2023-04-22T10:42:10.480Z,94541.00
2023-04-22T10:43:10.328Z,94541.00
2023-04-22T10:44:10.193Z,94537.00
2023-04-22T10:45:10.056Z,94537.00
2023-04-22T10:46:09.924Z,94537.00
2023-04-22T10:47:09.776Z,94531.00
2023-04-22T10:48:09.641Z,94537.00
2023-04-22T10:49:09.503Z,94531.00
2023-04-22T10:50:09.491Z,94533.00
2023-04-22T10:51:09.231Z,94523.00
2023-04-22T10:52:09.095Z,94529.00
2023-04-22T10:53:09.034Z,94525.00
2023-04-22T10:54:08.787Z,94527.00
2023-04-22T10:55:08.648Z,94529.00
2023-04-22T10:56:08.488Z,94527.00
2023-04-22T10:57:08.338Z,94521.00
2023-04-22T10:58:08.186Z,94521.00
2023-04-22T10:59:08.073Z,94521.00
2023-04-22T11:00:07.978Z,94519.00
2023-04-22T11:01:07.966Z,94517.00
2023-04-22T11:02:08.075Z,94515.00
2023-04-22T11:03:07.779Z,94519.00
2023-04-22T11:04:07.742Z,94519.00
2023-04-22T11:05:07.501Z,94517.00
2023-04-22T11:06:07.401Z,94517.00
2023-04-22T11:07:07.301Z,94517.00
2023-04-22T11:08:07.211Z,94515.00
2023-04-22T11:09:07.097Z,94515.00
2023-04-22T11:10:07.039Z,94515.00
2023-04-22T11:11:06.833Z,94511.00
2023-04-22T11:12:06.732Z,94511.00
2023-04-22T11:13:06.627Z,94509.00
2023-04-22T11:14:06.523Z,94509.00
2023-04-22T11:15:06.444Z,94509.00
2023-04-22T11:16:06.356Z,94509.00
2023-04-22T11:17:06.205Z,94509.00
2023-04-22T11:18:06.078Z,94509.00
2023-04-22T11:19:05.921Z,94507.00
2023-04-22T11:20:05.772Z,94509.00
2023-04-22T11:21:05.635Z,94505.00
2023-04-22T11:22:05.522Z,94505.00
2023-04-22T11:23:05.349Z,94501.00
2023-04-22T11:24:05.204Z,94501.00
2023-04-22T11:25:05.085Z,94497.00
2023-04-22T11:26:04.929Z,94496.00
2023-04-22T11:27:04.782Z,94497.00
2023-04-22T11:28:04.652Z,94494.00
2023-04-22T11:29:04.513Z,94494.00
2023-04-22T11:30:04.353Z,94496.00
2023-04-22T11:31:04.214Z,94494.00
2023-04-22T11:32:04.366Z,94490.00
2023-04-22T11:33:04.052Z,94488.00
2023-04-22T11:34:03.837Z,94484.00
2023-04-22T11:35:03.679Z,94488.00
2023-04-22T11:36:03.525Z,94486.00
2023-04-22T11:37:03.403Z,94482.00
2023-04-22T11:38:03.250Z,94484.00
2023-04-22T11:39:03.094Z,94484.00
2023-04-22T11:40:25.334Z,94482.00
2023-04-22T11:41:02.818Z,94482.00
2023-04-22T11:42:02.616Z,94484.00
2023-04-22T11:43:02.441Z,94476.00
2023-04-22T11:44:02.316Z,94478.00
2023-04-22T11:45:02.141Z,94476.00
2023-04-22T11:46:02.047Z,94476.00